Fykan — LLDJ — position and weather

sailwx.info

Track history (hours):
 
Tides and Currents Weather Stations Pressure Air Temp Water Temp Dewpoint Dewpoint Depression Visibility Wind Speed Wind Dir Waves Ship Positions

Fykan

Last reported at 2014-Sep-20 10:33 UTC. Time now 2014-Sep-20 22:09 UTC.
Position N 66°35' E 012°45'.

Length 52 m; draft 3.3 m.

Type: Ship. MMSI: 259681000.

Date/timePositionNaut miles runAvg speedWind from/ knotsBaromVisibWave heightAir tempDewpointWater temp
2014-Sep-20 10:33N 66°35' E 012°45'6 5.6
2014-Sep-20 09:33N 66°35' E 012°59'1 0.2
2014-Sep-20 06:16N 66°36' E 012°59'4 5.7
2014-Sep-20 05:32N 66°34' E 012°50'4 0.5
2014-Sep-19 20:28N 66°36' E 012°42'5 1.3
2014-Sep-19 16:29N 66°34' E 012°53'2 0.3
2014-Sep-19 10:28N 66°34' E 012°49'4 4.7
2014-Sep-19 09:31N 66°36' E 012°59'5 1.7
2014-Sep-19 06:30N 66°34' E 013°11'5 4.0
2014-Sep-19 05:10N 66°36' E 012°59'5 6.6
2014-Sep-19 04:29N 66°34' E 012°49'1 0.1
2014-Sep-18 18:14N 66°34' E 012°48'5 6.2
2014-Sep-18 17:31N 66°35' E 012°59'4 0.6
2014-Sep-18 11:04N 66°34' E 012°50'4 0.9
2014-Sep-18 06:25N 66°36' E 012°59'5 5.4
2014-Sep-18 05:33N 66°34' E 012°49'0 0.0
2014-Sep-17 20:20N 66°34' E 012°49'5 0.8
2014-Sep-17 14:31N 66°36' E 012°59'5 5.4
2014-Sep-17 13:33N 66°34' E 012°47'0 0.0
2014-Sep-17 10:29N 66°34' E 012°47'5 5.5
2014-Sep-17 09:33N 66°36' E 012°59'3 0.2
2014-Sep-16 20:32N 66°34' E 012°52'3 1.0
2014-Sep-16 17:05N 66°36' E 012°59'6 5.7
2014-Sep-16 16:06N 66°34' E 012°46'2 0.4
2014-Sep-16 10:33N 66°34' E 012°50'5 4.6
2014-Sep-16 09:29N 66°37' E 012°59'0 0.0
2014-Sep-16 05:24N 66°37' E 012°59'5 5.9
2014-Sep-16 04:32N 66°34' E 012°50'3 0.3
2014-Sep-15 18:23N 66°35' E 012°42'6 6.4
2014-Sep-15 17:28N 66°37' E 012°57'1 0.4
2014-Sep-15 14:33N 66°36' E 012°59'5 5.3
2014-Sep-15 13:34N 66°34' E 012°47'2 1.0
2014-Sep-15 11:25N 66°35' E 012°42'5 6.2
2014-Sep-15 10:33N 66°34' E 012°55'2 0.6
2014-Sep-15 06:17N 66°35' E 012°59'4 5.4
2014-Sep-15 05:33N 66°34' E 012°50'4 0.4
2014-Sep-14 21:24N 66°35' E 012°42'12 3.1
2014-Sep-14 17:31N 66°33' E 013°12'6 2.6
2014-Sep-14 15:15N 66°36' E 012°59'4 6.0
2014-Sep-14 14:33N 66°34' E 012°50'0 0.0
2014-Sep-13 10:31N 66°34' E 012°50'5 4.3
2014-Sep-13 09:21N 66°37' E 012°59'1 0.3
2014-Sep-13 06:21N 66°36' E 012°59'4 5.4
2014-Sep-13 05:33N 66°34' E 012°50'0 0.1
2014-Sep-12 20:33N 66°34' E 012°48'1 0.3
2014-Sep-12 16:23N 66°34' E 012°52'1 0.1
2014-Sep-12 10:28N 66°34' E 012°50'4 0.8
2014-Sep-12 05:17N 66°36' E 012°59'5 6.7
2014-Sep-12 04:34N 66°34' E 012°48'2 0.2
2014-Sep-11 18:28N 66°35' E 012°45'6 1.5
2014-Sep-11 14:29N 66°36' E 012°59'6 6.0
2014-Sep-11 13:33N 66°35' E 012°45'0 0.1
2014-Sep-11 11:04N 66°35' E 012°45'4 6.3
2014-Sep-11 10:30N 66°34' E 012°54'3 0.7
2014-Sep-11 06:27N 66°36' E 012°59'5 5.5
2014-Sep-11 05:34N 66°34' E 012°48'3 0.4
2014-Sep-10 21:05N 66°36' E 012°42'4 7.5
2014-Sep-10 20:32N 66°34' E 012°50'4 0.7
2014-Sep-10 14:24N 66°36' E 012°59'5 6.1
2014-Sep-10 13:34N 66°34' E 012°47'  
Track history (hours):
 
Tides and Currents Weather Stations Pressure Air Temp Water Temp Dewpoint Dewpoint Depression Visibility Wind Speed Wind Dir Waves Ship Positions

Fykan

Last reported at 2014-Sep-20 10:33 UTC. Time now 2014-Sep-20 22:09 UTC.
Position N 66°35' E 012°45'.

Length 52 m; draft 3.3 m.

Type: Ship. MMSI: 259681000.

Date/timePositionNaut miles runAvg speedWind from/ knotsBaromVisibWave heightAir tempDewpointWater temp
2014-Sep-20 10:33N 66°35' E 012°45'6 5.6
2014-Sep-20 09:33N 66°35' E 012°59'1 0.2
2014-Sep-20 06:16N 66°36' E 012°59'4 5.7
2014-Sep-20 05:32N 66°34' E 012°50'4 0.5
2014-Sep-19 20:28N 66°36' E 012°42'5 1.3
2014-Sep-19 16:29N 66°34' E 012°53'2 0.3
2014-Sep-19 10:28N 66°34' E 012°49'4 4.7
2014-Sep-19 09:31N 66°36' E 012°59'5 1.7
2014-Sep-19 06:30N 66°34' E 013°11'5 4.0
2014-Sep-19 05:10N 66°36' E 012°59'5 6.6
2014-Sep-19 04:29N 66°34' E 012°49'1 0.1
2014-Sep-18 18:14N 66°34' E 012°48'5 6.2
2014-Sep-18 17:31N 66°35' E 012°59'4 0.6
2014-Sep-18 11:04N 66°34' E 012°50'4 0.9
2014-Sep-18 06:25N 66°36' E 012°59'5 5.4
2014-Sep-18 05:33N 66°34' E 012°49'0 0.0
2014-Sep-17 20:20N 66°34' E 012°49'5 0.8
2014-Sep-17 14:31N 66°36' E 012°59'5 5.4
2014-Sep-17 13:33N 66°34' E 012°47'0 0.0
2014-Sep-17 10:29N 66°34' E 012°47'5 5.5
2014-Sep-17 09:33N 66°36' E 012°59'3 0.2
2014-Sep-16 20:32N 66°34' E 012°52'3 1.0
2014-Sep-16 17:05N 66°36' E 012°59'6 5.7
2014-Sep-16 16:06N 66°34' E 012°46'2 0.4
2014-Sep-16 10:33N 66°34' E 012°50'5 4.6
2014-Sep-16 09:29N 66°37' E 012°59'0 0.0
2014-Sep-16 05:24N 66°37' E 012°59'5 5.9
2014-Sep-16 04:32N 66°34' E 012°50'3 0.3
2014-Sep-15 18:23N 66°35' E 012°42'6 6.4
2014-Sep-15 17:28N 66°37' E 012°57'1 0.4
2014-Sep-15 14:33N 66°36' E 012°59'5 5.3
2014-Sep-15 13:34N 66°34' E 012°47'2 1.0
2014-Sep-15 11:25N 66°35' E 012°42'5 6.2
2014-Sep-15 10:33N 66°34' E 012°55'2 0.6
2014-Sep-15 06:17N 66°35' E 012°59'4 5.4
2014-Sep-15 05:33N 66°34' E 012°50'4 0.4
2014-Sep-14 21:24N 66°35' E 012°42'12 3.1
2014-Sep-14 17:31N 66°33' E 013°12'6 2.6
2014-Sep-14 15:15N 66°36' E 012°59'4 6.0
2014-Sep-14 14:33N 66°34' E 012°50'0 0.0
2014-Sep-13 10:31N 66°34' E 012°50'5 4.3
2014-Sep-13 09:21N 66°37' E 012°59'1 0.3
2014-Sep-13 06:21N 66°36' E 012°59'4 5.4
2014-Sep-13 05:33N 66°34' E 012°50'0 0.1
2014-Sep-12 20:33N 66°34' E 012°48'1 0.3
2014-Sep-12 16:23N 66°34' E 012°52'1 0.1
2014-Sep-12 10:28N 66°34' E 012°50'4 0.8
2014-Sep-12 05:17N 66°36' E 012°59'5 6.7
2014-Sep-12 04:34N 66°34' E 012°48'2 0.2
2014-Sep-11 18:28N 66°35' E 012°45'6 1.5
2014-Sep-11 14:29N 66°36' E 012°59'6 6.0
2014-Sep-11 13:33N 66°35' E 012°45'0 0.1
2014-Sep-11 11:04N 66°35' E 012°45'4 6.3
2014-Sep-11 10:30N 66°34' E 012°54'3 0.7
2014-Sep-11 06:27N 66°36' E 012°59'5 5.5
2014-Sep-11 05:34N 66°34' E 012°48'3 0.4
2014-Sep-10 21:05N 66°36' E 012°42'4 7.5
2014-Sep-10 20:32N 66°34' E 012°50'4 0.7
2014-Sep-10 14:24N 66°36' E 012°59'5 6.1
2014-Sep-10 13:34N 66°34' E 012°47'  

Dump ship's entire track history